sensor_id;sensor_type;location;lat;lon;timestamp;P1;durP1;ratioP1;P2;durP2;ratioP2
18084;SDS011;9169;44.492;11.372;2023-12-07T00:00:32;38.17;;;5.40;;
18084;SDS011;9169;44.492;11.372;2023-12-07T00:02:59;37.47;;;5.57;;
18084;SDS011;9169;44.492;11.372;2023-12-07T00:05:28;38.17;;;6.03;;
18084;SDS011;9169;44.492;11.372;2023-12-07T00:07:56;36.67;;;5.00;;
18084;SDS011;9169;44.492;11.372;2023-12-07T00:10:24;38.10;;;5.27;;
18084;SDS011;9169;44.492;11.372;2023-12-07T00:12:53;38.07;;;5.40;;
18084;SDS011;9169;44.492;11.372;2023-12-07T00:15:21;40.40;;;4.97;;
18084;SDS011;9169;44.492;11.372;2023-12-07T00:17:51;37.30;;;5.73;;
18084;SDS011;9169;44.492;11.372;2023-12-07T00:20:20;36.97;;;4.97;;
18084;SDS011;9169;44.492;11.372;2023-12-07T00:22:48;36.93;;;5.30;;
18084;SDS011;9169;44.492;11.372;2023-12-07T00:25:17;37.20;;;5.13;;
18084;SDS011;9169;44.492;11.372;2023-12-07T00:27:45;37.67;;;5.30;;
18084;SDS011;9169;44.492;11.372;2023-12-07T00:30:14;38.63;;;6.00;;
18084;SDS011;9169;44.492;11.372;2023-12-07T00:32:43;39.87;;;6.90;;
18084;SDS011;9169;44.492;11.372;2023-12-07T00:35:14;38.87;;;5.73;;
18084;SDS011;9169;44.492;11.372;2023-12-07T00:37:43;40.07;;;6.23;;
18084;SDS011;9169;44.492;11.372;2023-12-07T00:40:11;39.60;;;6.63;;
18084;SDS011;9169;44.492;11.372;2023-12-07T00:42:40;39.33;;;5.90;;
18084;SDS011;9169;44.492;11.372;2023-12-07T00:45:11;40.00;;;6.77;;
18084;SDS011;9169;44.492;11.372;2023-12-07T00:47:42;41.13;;;5.70;;
18084;SDS011;9169;44.492;11.372;2023-12-07T00:50:11;38.70;;;5.43;;
18084;SDS011;9169;44.492;11.372;2023-12-07T00:52:42;38.53;;;5.33;;
18084;SDS011;9169;44.492;11.372;2023-12-07T00:55:11;42.87;;;5.67;;
18084;SDS011;9169;44.492;11.372;2023-12-07T00:57:39;37.77;;;5.00;;
18084;SDS011;9169;44.492;11.372;2023-12-07T01:00:08;39.80;;;5.43;;
18084;SDS011;9169;44.492;11.372;2023-12-07T01:02:37;40.10;;;5.67;;
18084;SDS011;9169;44.492;11.372;2023-12-07T01:05:06;40.37;;;5.07;;
18084;SDS011;9169;44.492;11.372;2023-12-07T01:07:38;39.13;;;5.47;;
18084;SDS011;9169;44.492;11.372;2023-12-07T01:10:08;39.30;;;4.67;;
18084;SDS011;9169;44.492;11.372;2023-12-07T01:12:36;41.20;;;5.77;;
18084;SDS011;9169;44.492;11.372;2023-12-07T01:15:05;38.47;;;5.03;;
18084;SDS011;9169;44.492;11.372;2023-12-07T01:17:34;41.13;;;5.67;;
18084;SDS011;9169;44.492;11.372;2023-12-07T01:20:03;38.77;;;4.53;;
18084;SDS011;9169;44.492;11.372;2023-12-07T01:22:40;38.30;;;4.93;;
18084;SDS011;9169;44.492;11.372;2023-12-07T01:25:09;39.47;;;5.20;;
18084;SDS011;9169;44.492;11.372;2023-12-07T01:27:37;40.37;;;5.43;;
18084;SDS011;9169;44.492;11.372;2023-12-07T01:30:07;38.83;;;4.83;;
18084;SDS011;9169;44.492;11.372;2023-12-07T01:32:36;40.33;;;4.97;;
18084;SDS011;9169;44.492;11.372;2023-12-07T01:35:05;40.13;;;4.60;;
18084;SDS011;9169;44.492;11.372;2023-12-07T01:37:34;43.90;;;4.30;;
18084;SDS011;9169;44.492;11.372;2023-12-07T01:40:05;40.03;;;4.50;;
18084;SDS011;9169;44.492;11.372;2023-12-07T01:42:37;39.40;;;4.60;;
18084;SDS011;9169;44.492;11.372;2023-12-07T01:45:06;38.80;;;4.50;;
18084;SDS011;9169;44.492;11.372;2023-12-07T01:47:35;39.97;;;4.53;;
18084;SDS011;9169;44.492;11.372;2023-12-07T01:50:05;39.80;;;4.47;;
18084;SDS011;9169;44.492;11.372;2023-12-07T01:52:34;39.07;;;4.77;;
18084;SDS011;9169;44.492;11.372;2023-12-07T01:55:10;39.07;;;4.43;;
18084;SDS011;9169;44.492;11.372;2023-12-07T01:57:39;39.30;;;4.40;;
18084;SDS011;9169;44.492;11.372;2023-12-07T02:00:09;39.73;;;4.50;;
18084;SDS011;9169;44.492;11.372;2023-12-07T02:02:39;40.63;;;5.20;;
18084;SDS011;9169;44.492;11.372;2023-12-07T02:05:08;38.97;;;4.80;;
18084;SDS011;9169;44.492;11.372;2023-12-07T02:07:36;38.70;;;4.23;;
18084;SDS011;9169;44.492;11.372;2023-12-07T02:10:06;40.30;;;4.67;;
18084;SDS011;9169;44.492;11.372;2023-12-07T02:12:36;38.27;;;4.10;;
18084;SDS011;9169;44.492;11.372;2023-12-07T02:15:05;39.27;;;4.50;;
18084;SDS011;9169;44.492;11.372;2023-12-07T02:17:35;39.67;;;4.30;;
18084;SDS011;9169;44.492;11.372;2023-12-07T02:20:10;38.07;;;3.57;;
18084;SDS011;9169;44.492;11.372;2023-12-07T02:22:46;37.80;;;3.83;;
18084;SDS011;9169;44.492;11.372;2023-12-07T02:25:21;37.90;;;3.70;;
18084;SDS011;9169;44.492;11.372;2023-12-07T02:27:55;39.13;;;4.10;;
18084;SDS011;9169;44.492;11.372;2023-12-07T02:30:24;37.43;;;3.67;;
18084;SDS011;9169;44.492;11.372;2023-12-07T02:32:52;36.87;;;3.83;;
18084;SDS011;9169;44.492;11.372;2023-12-07T02:35:21;37.60;;;3.70;;
18084;SDS011;9169;44.492;11.372;2023-12-07T02:37:50;38.40;;;4.20;;
18084;SDS011;9169;44.492;11.372;2023-12-07T02:40:21;37.87;;;3.90;;
18084;SDS011;9169;44.492;11.372;2023-12-07T02:42:51;38.77;;;4.37;;
18084;SDS011;9169;44.492;11.372;2023-12-07T02:45:23;39.43;;;4.03;;
18084;SDS011;9169;44.492;11.372;2023-12-07T02:47:52;37.23;;;3.87;;
18084;SDS011;9169;44.492;11.372;2023-12-07T02:50:21;38.10;;;4.10;;
18084;SDS011;9169;44.492;11.372;2023-12-07T02:52:49;39.03;;;4.13;;
18084;SDS011;9169;44.492;11.372;2023-12-07T02:55:18;37.23;;;3.80;;
18084;SDS011;9169;44.492;11.372;2023-12-07T02:57:47;38.47;;;4.23;;
18084;SDS011;9169;44.492;11.372;2023-12-07T03:00:15;38.37;;;4.30;;
18084;SDS011;9169;44.492;11.372;2023-12-07T03:02:45;39.40;;;4.00;;
18084;SDS011;9169;44.492;11.372;2023-12-07T03:05:14;38.03;;;4.33;;
18084;SDS011;9169;44.492;11.372;2023-12-07T03:07:43;40.40;;;4.07;;
18084;SDS011;9169;44.492;11.372;2023-12-07T03:10:11;38.23;;;3.83;;
18084;SDS011;9169;44.492;11.372;2023-12-07T03:12:40;40.17;;;4.70;;
18084;SDS011;9169;44.492;11.372;2023-12-07T03:15:08;39.07;;;4.20;;
18084;SDS011;9169;44.492;11.372;2023-12-07T03:17:37;37.63;;;3.73;;
18084;SDS011;9169;44.492;11.372;2023-12-07T03:20:07;40.50;;;4.23;;
18084;SDS011;9169;44.492;11.372;2023-12-07T03:22:37;41.60;;;4.27;;
18084;SDS011;9169;44.492;11.372;2023-12-07T03:25:06;37.67;;;3.60;;
18084;SDS011;9169;44.492;11.372;2023-12-07T03:27:34;39.10;;;3.97;;
18084;SDS011;9169;44.492;11.372;2023-12-07T03:30:03;38.17;;;3.87;;
18084;SDS011;9169;44.492;11.372;2023-12-07T03:32:32;38.20;;;3.87;;
18084;SDS011;9169;44.492;11.372;2023-12-07T03:35:00;37.97;;;3.60;;
18084;SDS011;9169;44.492;11.372;2023-12-07T03:37:30;38.17;;;3.70;;
18084;SDS011;9169;44.492;11.372;2023-12-07T03:39:59;37.60;;;3.80;;
18084;SDS011;9169;44.492;11.372;2023-12-07T03:42:27;36.10;;;3.13;;
18084;SDS011;9169;44.492;11.372;2023-12-07T03:44:56;36.87;;;3.43;;
18084;SDS011;9169;44.492;11.372;2023-12-07T03:47:24;36.83;;;4.10;;
18084;SDS011;9169;44.492;11.372;2023-12-07T03:49:52;36.20;;;3.50;;
18084;SDS011;9169;44.492;11.372;2023-12-07T03:52:21;35.40;;;3.47;;
18084;SDS011;9169;44.492;11.372;2023-12-07T03:54:51;34.30;;;3.20;;
18084;SDS011;9169;44.492;11.372;2023-12-07T03:57:20;34.63;;;3.67;;
18084;SDS011;9169;44.492;11.372;2023-12-07T03:59:48;35.30;;;3.53;;
18084;SDS011;9169;44.492;11.372;2023-12-07T04:02:16;34.07;;;3.33;;
18084;SDS011;9169;44.492;11.372;2023-12-07T04:04:45;35.17;;;3.57;;
18084;SDS011;9169;44.492;11.372;2023-12-07T04:07:14;34.13;;;3.27;;
18084;SDS011;9169;44.492;11.372;2023-12-07T04:09:42;34.97;;;3.60;;
18084;SDS011;9169;44.492;11.372;2023-12-07T04:12:13;35.20;;;3.90;;
18084;SDS011;9169;44.492;11.372;2023-12-07T04:14:41;35.17;;;3.60;;
18084;SDS011;9169;44.492;11.372;2023-12-07T04:17:10;40.10;;;4.13;;
18084;SDS011;9169;44.492;11.372;2023-12-07T04:19:38;35.40;;;3.67;;
18084;SDS011;9169;44.492;11.372;2023-12-07T04:22:07;34.90;;;3.50;;
18084;SDS011;9169;44.492;11.372;2023-12-07T04:24:36;34.47;;;3.30;;
18084;SDS011;9169;44.492;11.372;2023-12-07T04:27:04;35.30;;;3.47;;
18084;SDS011;9169;44.492;11.372;2023-12-07T04:29:34;35.93;;;3.40;;
18084;SDS011;9169;44.492;11.372;2023-12-07T04:32:04;38.67;;;3.93;;
18084;SDS011;9169;44.492;11.372;2023-12-07T04:34:34;36.80;;;3.70;;
18084;SDS011;9169;44.492;11.372;2023-12-07T04:37:02;37.47;;;3.70;;
18084;SDS011;9169;44.492;11.372;2023-12-07T04:39:31;35.67;;;3.57;;
18084;SDS011;9169;44.492;11.372;2023-12-07T04:42:00;35.63;;;3.37;;
18084;SDS011;9169;44.492;11.372;2023-12-07T04:44:28;36.90;;;3.50;;
18084;SDS011;9169;44.492;11.372;2023-12-07T04:46:58;35.87;;;3.40;;
18084;SDS011;9169;44.492;11.372;2023-12-07T04:49:27;35.20;;;3.17;;
18084;SDS011;9169;44.492;11.372;2023-12-07T04:51:55;38.30;;;3.20;;
18084;SDS011;9169;44.492;11.372;2023-12-07T04:54:24;34.57;;;3.30;;
18084;SDS011;9169;44.492;11.372;2023-12-07T04:56:54;34.57;;;3.00;;
18084;SDS011;9169;44.492;11.372;2023-12-07T04:59:22;34.90;;;3.53;;
18084;SDS011;9169;44.492;11.372;2023-12-07T05:01:51;35.27;;;3.27;;
18084;SDS011;9169;44.492;11.372;2023-12-07T05:04:21;35.40;;;3.97;;
18084;SDS011;9169;44.492;11.372;2023-12-07T05:06:50;38.93;;;4.50;;
18084;SDS011;9169;44.492;11.372;2023-12-07T05:09:19;35.37;;;3.30;;
18084;SDS011;9169;44.492;11.372;2023-12-07T05:11:48;37.50;;;3.47;;
18084;SDS011;9169;44.492;11.372;2023-12-07T05:14:16;42.73;;;3.73;;
18084;SDS011;9169;44.492;11.372;2023-12-07T05:16:45;36.37;;;3.30;;
18084;SDS011;9169;44.492;11.372;2023-12-07T05:19:14;36.27;;;3.53;;
18084;SDS011;9169;44.492;11.372;2023-12-07T05:21:44;36.07;;;3.43;;
18084;SDS011;9169;44.492;11.372;2023-12-07T05:24:13;37.00;;;3.67;;
18084;SDS011;9169;44.492;11.372;2023-12-07T05:26:41;37.90;;;4.50;;
18084;SDS011;9169;44.492;11.372;2023-12-07T05:29:12;38.33;;;3.90;;
18084;SDS011;9169;44.492;11.372;2023-12-07T05:31:41;36.80;;;3.67;;
18084;SDS011;9169;44.492;11.372;2023-12-07T05:34:10;36.97;;;3.53;;
18084;SDS011;9169;44.492;11.372;2023-12-07T05:36:38;39.33;;;3.50;;
18084;SDS011;9169;44.492;11.372;2023-12-07T05:39:08;36.97;;;3.10;;
18084;SDS011;9169;44.492;11.372;2023-12-07T05:41:37;38.30;;;3.70;;
18084;SDS011;9169;44.492;11.372;2023-12-07T05:44:06;36.60;;;3.40;;
18084;SDS011;9169;44.492;11.372;2023-12-07T05:46:35;36.20;;;3.30;;
18084;SDS011;9169;44.492;11.372;2023-12-07T05:49:04;37.07;;;3.57;;
18084;SDS011;9169;44.492;11.372;2023-12-07T05:51:32;36.77;;;3.33;;
18084;SDS011;9169;44.492;11.372;2023-12-07T05:54:01;36.40;;;3.40;;
18084;SDS011;9169;44.492;11.372;2023-12-07T05:56:31;35.07;;;2.97;;
18084;SDS011;9169;44.492;11.372;2023-12-07T05:58:59;36.70;;;3.87;;
18084;SDS011;9169;44.492;11.372;2023-12-07T06:01:28;36.40;;;3.80;;
18084;SDS011;9169;44.492;11.372;2023-12-07T06:03:57;35.40;;;3.20;;
18084;SDS011;9169;44.492;11.372;2023-12-07T06:06:26;36.40;;;3.20;;
18084;SDS011;9169;44.492;11.372;2023-12-07T06:08:55;36.50;;;3.63;;
18084;SDS011;9169;44.492;11.372;2023-12-07T06:11:24;36.97;;;3.87;;
18084;SDS011;9169;44.492;11.372;2023-12-07T06:13:54;37.23;;;3.90;;
18084;SDS011;9169;44.492;11.372;2023-12-07T06:16:22;41.27;;;3.60;;
18084;SDS011;9169;44.492;11.372;2023-12-07T06:18:52;36.57;;;3.70;;
18084;SDS011;9169;44.492;11.372;2023-12-07T06:21:20;36.93;;;3.30;;
18084;SDS011;9169;44.492;11.372;2023-12-07T06:23:49;38.90;;;4.30;;
18084;SDS011;9169;44.492;11.372;2023-12-07T06:26:17;34.17;;;3.30;;
18084;SDS011;9169;44.492;11.372;2023-12-07T06:28:46;36.50;;;4.60;;
18084;SDS011;9169;44.492;11.372;2023-12-07T06:31:16;34.87;;;3.00;;
18084;SDS011;9169;44.492;11.372;2023-12-07T06:33:46;39.67;;;2.93;;
18084;SDS011;9169;44.492;11.372;2023-12-07T06:36:18;33.90;;;2.87;;
18084;SDS011;9169;44.492;11.372;2023-12-07T06:38:48;35.33;;;3.00;;
18084;SDS011;9169;44.492;11.372;2023-12-07T06:41:16;33.80;;;2.43;;
18084;SDS011;9169;44.492;11.372;2023-12-07T06:43:45;33.70;;;3.03;;
18084;SDS011;9169;44.492;11.372;2023-12-07T06:46:15;32.90;;;3.10;;
18084;SDS011;9169;44.492;11.372;2023-12-07T06:48:44;34.17;;;2.83;;
18084;SDS011;9169;44.492;11.372;2023-12-07T06:51:12;34.73;;;2.70;;
18084;SDS011;9169;44.492;11.372;2023-12-07T06:53:41;32.37;;;2.70;;
18084;SDS011;9169;44.492;11.372;2023-12-07T06:56:10;33.73;;;3.20;;
18084;SDS011;9169;44.492;11.372;2023-12-07T06:58:38;33.63;;;2.60;;
18084;SDS011;9169;44.492;11.372;2023-12-07T07:01:07;33.90;;;3.23;;
18084;SDS011;9169;44.492;11.372;2023-12-07T07:03:36;32.30;;;2.53;;
18084;SDS011;9169;44.492;11.372;2023-12-07T07:06:05;36.40;;;2.87;;
18084;SDS011;9169;44.492;11.372;2023-12-07T07:08:34;37.63;;;3.57;;
18084;SDS011;9169;44.492;11.372;2023-12-07T07:11:09;33.80;;;2.70;;
18084;SDS011;9169;44.492;11.372;2023-12-07T07:13:40;32.97;;;2.70;;
18084;SDS011;9169;44.492;11.372;2023-12-07T07:16:08;37.80;;;3.00;;
18084;SDS011;9169;44.492;11.372;2023-12-07T07:18:39;34.00;;;3.30;;
18084;SDS011;9169;44.492;11.372;2023-12-07T07:21:07;32.87;;;2.70;;
18084;SDS011;9169;44.492;11.372;2023-12-07T07:23:36;36.97;;;3.00;;
18084;SDS011;9169;44.492;11.372;2023-12-07T07:26:04;33.93;;;3.10;;
18084;SDS011;9169;44.492;11.372;2023-12-07T07:28:33;33.20;;;2.67;;
18084;SDS011;9169;44.492;11.372;2023-12-07T07:31:03;31.23;;;2.50;;
18084;SDS011;9169;44.492;11.372;2023-12-07T07:33:31;32.80;;;2.80;;
18084;SDS011;9169;44.492;11.372;2023-12-07T07:36:01;32.23;;;2.77;;
18084;SDS011;9169;44.492;11.372;2023-12-07T07:38:30;32.07;;;2.67;;
18084;SDS011;9169;44.492;11.372;2023-12-07T07:40:59;31.60;;;2.80;;
18084;SDS011;9169;44.492;11.372;2023-12-07T07:43:28;30.90;;;2.40;;
18084;SDS011;9169;44.492;11.372;2023-12-07T07:45:56;31.70;;;2.77;;
18084;SDS011;9169;44.492;11.372;2023-12-07T07:48:25;31.87;;;3.20;;
18084;SDS011;9169;44.492;11.372;2023-12-07T07:50:54;32.87;;;3.20;;
18084;SDS011;9169;44.492;11.372;2023-12-07T07:53:23;30.30;;;3.00;;
18084;SDS011;9169;44.492;11.372;2023-12-07T07:55:52;31.50;;;3.00;;
18084;SDS011;9169;44.492;11.372;2023-12-07T07:58:21;29.70;;;2.93;;
18084;SDS011;9169;44.492;11.372;2023-12-07T08:00:49;29.20;;;2.90;;
18084;SDS011;9169;44.492;11.372;2023-12-07T08:03:18;28.60;;;2.27;;
18084;SDS011;9169;44.492;11.372;2023-12-07T08:05:47;29.80;;;3.10;;
18084;SDS011;9169;44.492;11.372;2023-12-07T08:08:15;30.30;;;3.00;;
18084;SDS011;9169;44.492;11.372;2023-12-07T08:10:45;31.20;;;2.90;;
18084;SDS011;9169;44.492;11.372;2023-12-07T08:13:14;28.23;;;2.50;;
18084;SDS011;9169;44.492;11.372;2023-12-07T08:15:44;31.90;;;2.40;;
18084;SDS011;9169;44.492;11.372;2023-12-07T08:18:13;27.60;;;2.50;;
18084;SDS011;9169;44.492;11.372;2023-12-07T08:20:42;30.50;;;2.80;;
18084;SDS011;9169;44.492;11.372;2023-12-07T08:23:10;30.30;;;3.00;;
18084;SDS011;9169;44.492;11.372;2023-12-07T08:25:39;26.57;;;2.20;;
18084;SDS011;9169;44.492;11.372;2023-12-07T08:28:11;25.77;;;2.70;;
18084;SDS011;9169;44.492;11.372;2023-12-07T08:30:39;25.33;;;2.70;;
18084;SDS011;9169;44.492;11.372;2023-12-07T08:33:08;29.80;;;2.60;;
18084;SDS011;9169;44.492;11.372;2023-12-07T08:35:37;25.60;;;2.70;;
18084;SDS011;9169;44.492;11.372;2023-12-07T08:38:05;26.80;;;2.77;;
18084;SDS011;9169;44.492;11.372;2023-12-07T08:40:34;18.80;;;2.80;;
18084;SDS011;9169;44.492;11.372;2023-12-07T08:43:02;10.03;;;2.43;;
18084;SDS011;9169;44.492;11.372;2023-12-07T08:45:36;5.80;;;2.40;;
18084;SDS011;9169;44.492;11.372;2023-12-07T08:48:05;5.90;;;2.80;;
18084;SDS011;9169;44.492;11.372;2023-12-07T08:50:34;6.50;;;3.13;;
18084;SDS011;9169;44.492;11.372;2023-12-07T08:53:02;5.03;;;2.73;;
18084;SDS011;9169;44.492;11.372;2023-12-07T08:55:31;4.33;;;2.60;;
18084;SDS011;9169;44.492;11.372;2023-12-07T08:58:02;11.93;;;3.20;;
18084;SDS011;9169;44.492;11.372;2023-12-07T09:00:31;6.03;;;3.00;;
18084;SDS011;9169;44.492;11.372;2023-12-07T09:03:01;6.00;;;3.27;;
18084;SDS011;9169;44.492;11.372;2023-12-07T09:05:29;4.23;;;2.70;;
18084;SDS011;9169;44.492;11.372;2023-12-07T09:07:58;4.70;;;2.67;;
18084;SDS011;9169;44.492;11.372;2023-12-07T09:10:29;6.50;;;2.87;;
18084;SDS011;9169;44.492;11.372;2023-12-07T09:12:58;5.60;;;2.47;;
18084;SDS011;9169;44.492;11.372;2023-12-07T09:15:26;5.17;;;2.80;;
18084;SDS011;9169;44.492;11.372;2023-12-07T09:17:55;5.90;;;3.03;;
18084;SDS011;9169;44.492;11.372;2023-12-07T09:20:25;7.67;;;3.40;;
18084;SDS011;9169;44.492;11.372;2023-12-07T09:22:53;9.53;;;3.23;;
18084;SDS011;9169;44.492;11.372;2023-12-07T09:25:23;7.50;;;3.57;;
18084;SDS011;9169;44.492;11.372;2023-12-07T09:27:54;6.60;;;3.10;;
18084;SDS011;9169;44.492;11.372;2023-12-07T09:30:23;8.30;;;3.90;;
18084;SDS011;9169;44.492;11.372;2023-12-07T09:32:51;8.40;;;4.33;;
18084;SDS011;9169;44.492;11.372;2023-12-07T09:35:20;10.07;;;5.43;;
18084;SDS011;9169;44.492;11.372;2023-12-07T09:37:50;7.90;;;4.63;;
18084;SDS011;9169;44.492;11.372;2023-12-07T09:40:20;11.50;;;5.40;;
18084;SDS011;9169;44.492;11.372;2023-12-07T09:42:49;9.40;;;5.70;;
18084;SDS011;9169;44.492;11.372;2023-12-07T09:45:18;10.80;;;5.77;;
18084;SDS011;9169;44.492;11.372;2023-12-07T09:47:49;10.27;;;6.37;;
18084;SDS011;9169;44.492;11.372;2023-12-07T09:50:18;9.20;;;5.43;;
18084;SDS011;9169;44.492;11.372;2023-12-07T09:52:51;11.20;;;6.47;;
18084;SDS011;9169;44.492;11.372;2023-12-07T09:55:26;11.00;;;6.33;;
18084;SDS011;9169;44.492;11.372;2023-12-07T09:57:54;11.83;;;6.37;;
18084;SDS011;9169;44.492;11.372;2023-12-07T10:00:24;11.27;;;5.63;;
18084;SDS011;9169;44.492;11.372;2023-12-07T10:02:53;10.83;;;6.70;;
18084;SDS011;9169;44.492;11.372;2023-12-07T10:05:22;11.90;;;7.00;;
18084;SDS011;9169;44.492;11.372;2023-12-07T10:07:52;12.50;;;6.80;;
18084;SDS011;9169;44.492;11.372;2023-12-07T10:10:23;10.50;;;6.40;;
18084;SDS011;9169;44.492;11.372;2023-12-07T10:12:53;17.93;;;7.20;;
18084;SDS011;9169;44.492;11.372;2023-12-07T10:15:24;13.87;;;7.90;;
18084;SDS011;9169;44.492;11.372;2023-12-07T10:17:55;17.80;;;7.93;;
18084;SDS011;9169;44.492;11.372;2023-12-07T10:20:26;14.60;;;8.30;;
18084;SDS011;9169;44.492;11.372;2023-12-07T10:23:04;16.47;;;9.07;;
18084;SDS011;9169;44.492;11.372;2023-12-07T10:25:35;20.73;;;9.90;;
18084;SDS011;9169;44.492;11.372;2023-12-07T10:28:05;15.90;;;9.27;;
18084;SDS011;9169;44.492;11.372;2023-12-07T10:30:34;17.00;;;10.27;;
18084;SDS011;9169;44.492;11.372;2023-12-07T10:33:04;17.10;;;10.83;;
18084;SDS011;9169;44.492;11.372;2023-12-07T10:35:37;18.60;;;10.70;;
18084;SDS011;9169;44.492;11.372;2023-12-07T10:38:08;16.43;;;10.80;;
18084;SDS011;9169;44.492;11.372;2023-12-07T10:40:37;16.90;;;11.20;;
18084;SDS011;9169;44.492;11.372;2023-12-07T10:43:06;19.70;;;10.80;;
18084;SDS011;9169;44.492;11.372;2023-12-07T10:45:36;18.07;;;11.20;;
18084;SDS011;9169;44.492;11.372;2023-12-07T10:48:05;19.30;;;10.40;;
18084;SDS011;9169;44.492;11.372;2023-12-07T10:50:35;16.33;;;9.90;;
18084;SDS011;9169;44.492;11.372;2023-12-07T10:53:11;18.60;;;9.63;;
18084;SDS011;9169;44.492;11.372;2023-12-07T10:55:47;17.40;;;9.80;;
18084;SDS011;9169;44.492;11.372;2023-12-07T10:58:21;19.20;;;9.90;;
18084;SDS011;9169;44.492;11.372;2023-12-07T11:00:52;16.93;;;9.43;;
18084;SDS011;9169;44.492;11.372;2023-12-07T11:03:21;17.43;;;10.30;;
18084;SDS011;9169;44.492;11.372;2023-12-07T11:05:50;17.30;;;9.77;;
18084;SDS011;9169;44.492;11.372;2023-12-07T11:08:24;20.10;;;10.07;;
18084;SDS011;9169;44.492;11.372;2023-12-07T11:11:00;17.80;;;9.20;;
18084;SDS011;9169;44.492;11.372;2023-12-07T11:13:33;20.87;;;9.63;;
18084;SDS011;9169;44.492;11.372;2023-12-07T11:16:05;16.90;;;10.07;;
18084;SDS011;9169;44.492;11.372;2023-12-07T11:18:33;15.97;;;8.97;;
18084;SDS011;9169;44.492;11.372;2023-12-07T11:21:02;15.97;;;9.63;;
18084;SDS011;9169;44.492;11.372;2023-12-07T11:23:33;21.27;;;9.03;;
18084;SDS011;9169;44.492;11.372;2023-12-07T11:26:02;14.67;;;8.70;;
18084;SDS011;9169;44.492;11.372;2023-12-07T11:28:34;16.97;;;8.73;;
18084;SDS011;9169;44.492;11.372;2023-12-07T11:31:07;17.27;;;9.20;;
18084;SDS011;9169;44.492;11.372;2023-12-07T11:33:37;14.90;;;8.67;;
18084;SDS011;9169;44.492;11.372;2023-12-07T11:36:07;14.50;;;8.13;;
18084;SDS011;9169;44.492;11.372;2023-12-07T11:41:35;15.60;;;9.50;;
18084;SDS011;9169;44.492;11.372;2023-12-07T11:44:11;16.53;;;9.77;;
18084;SDS011;9169;44.492;11.372;2023-12-07T11:46:39;16.97;;;9.23;;
18084;SDS011;9169;44.492;11.372;2023-12-07T11:49:08;19.73;;;10.53;;
18084;SDS011;9169;44.492;11.372;2023-12-07T11:51:41;17.60;;;10.17;;
18084;SDS011;9169;44.492;11.372;2023-12-07T11:54:10;19.73;;;10.87;;
18084;SDS011;9169;44.492;11.372;2023-12-07T11:56:40;19.10;;;10.17;;
18084;SDS011;9169;44.492;11.372;2023-12-07T11:59:09;23.27;;;10.80;;
18084;SDS011;9169;44.492;11.372;2023-12-07T12:01:39;27.90;;;11.50;;
18084;SDS011;9169;44.492;11.372;2023-12-07T12:04:15;20.80;;;11.03;;
18084;SDS011;9169;44.492;11.372;2023-12-07T12:06:43;21.33;;;11.00;;
18084;SDS011;9169;44.492;11.372;2023-12-07T12:09:12;18.47;;;11.00;;
18084;SDS011;9169;44.492;11.372;2023-12-07T12:11:47;22.10;;;11.07;;
18084;SDS011;9169;44.492;11.372;2023-12-07T12:14:16;22.33;;;11.47;;
18084;SDS011;9169;44.492;11.372;2023-12-07T12:16:48;18.80;;;11.17;;
18084;SDS011;9169;44.492;11.372;2023-12-07T12:19:17;21.07;;;10.60;;
18084;SDS011;9169;44.492;11.372;2023-12-07T12:21:48;18.47;;;10.30;;
18084;SDS011;9169;44.492;11.372;2023-12-07T12:24:17;18.40;;;9.10;;
18084;SDS011;9169;44.492;11.372;2023-12-07T12:26:47;20.27;;;9.50;;
18084;SDS011;9169;44.492;11.372;2023-12-07T12:29:16;18.63;;;10.60;;
18084;SDS011;9169;44.492;11.372;2023-12-07T12:31:45;14.73;;;8.37;;
18084;SDS011;9169;44.492;11.372;2023-12-07T12:34:14;19.33;;;9.33;;
18084;SDS011;9169;44.492;11.372;2023-12-07T12:36:44;17.40;;;10.03;;
18084;SDS011;9169;44.492;11.372;2023-12-07T12:39:12;17.50;;;10.20;;
18084;SDS011;9169;44.492;11.372;2023-12-07T12:41:47;14.87;;;8.83;;
18084;SDS011;9169;44.492;11.372;2023-12-07T12:44:16;20.07;;;8.67;;
18084;SDS011;9169;44.492;11.372;2023-12-07T12:46:47;15.93;;;8.73;;
18084;SDS011;9169;44.492;11.372;2023-12-07T12:49:15;16.10;;;9.30;;
18084;SDS011;9169;44.492;11.372;2023-12-07T12:51:44;18.47;;;8.70;;
18084;SDS011;9169;44.492;11.372;2023-12-07T12:54:15;15.83;;;8.97;;
18084;SDS011;9169;44.492;11.372;2023-12-07T12:56:47;16.40;;;9.07;;
18084;SDS011;9169;44.492;11.372;2023-12-07T12:59:15;16.80;;;8.43;;
18084;SDS011;9169;44.492;11.372;2023-12-07T13:01:44;15.70;;;8.40;;
18084;SDS011;9169;44.492;11.372;2023-12-07T13:04:13;14.43;;;8.20;;
18084;SDS011;9169;44.492;11.372;2023-12-07T13:06:41;20.27;;;7.93;;
18084;SDS011;9169;44.492;11.372;2023-12-07T13:09:10;16.57;;;8.27;;
18084;SDS011;9169;44.492;11.372;2023-12-07T13:11:42;14.10;;;8.37;;
18084;SDS011;9169;44.492;11.372;2023-12-07T13:14:12;13.20;;;7.60;;
18084;SDS011;9169;44.492;11.372;2023-12-07T13:16:40;13.80;;;8.57;;
18084;SDS011;9169;44.492;11.372;2023-12-07T13:19:09;15.03;;;8.20;;
18084;SDS011;9169;44.492;11.372;2023-12-07T13:21:38;14.30;;;8.20;;
18084;SDS011;9169;44.492;11.372;2023-12-07T13:24:06;13.37;;;7.70;;
18084;SDS011;9169;44.492;11.372;2023-12-07T13:26:39;15.37;;;7.97;;
18084;SDS011;9169;44.492;11.372;2023-12-07T13:29:08;16.73;;;8.10;;
18084;SDS011;9169;44.492;11.372;2023-12-07T13:31:42;18.10;;;8.70;;
18084;SDS011;9169;44.492;11.372;2023-12-07T13:34:10;18.33;;;8.93;;
18084;SDS011;9169;44.492;11.372;2023-12-07T13:36:41;15.40;;;7.87;;
18084;SDS011;9169;44.492;11.372;2023-12-07T13:39:09;15.20;;;8.90;;
18084;SDS011;9169;44.492;11.372;2023-12-07T13:41:42;15.23;;;9.53;;
18084;SDS011;9169;44.492;11.372;2023-12-07T13:44:11;13.83;;;8.93;;
18084;SDS011;9169;44.492;11.372;2023-12-07T13:46:43;14.80;;;9.60;;
18084;SDS011;9169;44.492;11.372;2023-12-07T13:49:11;20.33;;;10.10;;
18084;SDS011;9169;44.492;11.372;2023-12-07T13:51:44;12.17;;;9.90;;
18084;SDS011;9169;44.492;11.372;2023-12-07T13:54:13;16.90;;;11.53;;
18084;SDS011;9169;44.492;11.372;2023-12-07T13:56:49;13.93;;;11.30;;
18084;SDS011;9169;44.492;11.372;2023-12-07T13:59:17;20.13;;;12.20;;
18084;SDS011;9169;44.492;11.372;2023-12-07T14:01:47;18.57;;;12.67;;
18084;SDS011;9169;44.492;11.372;2023-12-07T14:04:16;17.93;;;12.93;;
18084;SDS011;9169;44.492;11.372;2023-12-07T14:06:46;15.53;;;12.80;;
18084;SDS011;9169;44.492;11.372;2023-12-07T14:09:15;17.93;;;12.33;;
18084;SDS011;9169;44.492;11.372;2023-12-07T14:11:44;17.30;;;12.70;;
18084;SDS011;9169;44.492;11.372;2023-12-07T14:14:13;18.40;;;13.27;;
18084;SDS011;9169;44.492;11.372;2023-12-07T14:16:42;26.13;;;13.30;;
18084;SDS011;9169;44.492;11.372;2023-12-07T14:19:13;38.23;;;26.63;;
18084;SDS011;9169;44.492;11.372;2023-12-07T14:21:43;23.47;;;12.60;;
18084;SDS011;9169;44.492;11.372;2023-12-07T14:24:15;21.30;;;13.20;;
18084;SDS011;9169;44.492;11.372;2023-12-07T14:26:43;24.40;;;13.30;;
18084;SDS011;9169;44.492;11.372;2023-12-07T14:29:12;19.10;;;14.17;;
18084;SDS011;9169;44.492;11.372;2023-12-07T14:31:45;20.77;;;14.00;;
18084;SDS011;9169;44.492;11.372;2023-12-07T14:34:15;21.30;;;13.03;;
18084;SDS011;9169;44.492;11.372;2023-12-07T14:36:46;18.73;;;14.60;;
18084;SDS011;9169;44.492;11.372;2023-12-07T14:39:15;20.63;;;13.63;;
18084;SDS011;9169;44.492;11.372;2023-12-07T14:41:44;27.13;;;15.50;;
18084;SDS011;9169;44.492;11.372;2023-12-07T14:44:14;21.10;;;14.97;;
18084;SDS011;9169;44.492;11.372;2023-12-07T14:46:44;21.27;;;14.57;;
18084;SDS011;9169;44.492;11.372;2023-12-07T14:49:14;20.73;;;15.30;;